sensor_id;sensor_type;location;lat;lon;timestamp;pressure;altitude;pressure_sealevel;temperature;humidity
51297;BME280;37380;45.186;9.792;2024-01-25T00:00:01;102095.09;;;1.22;88.06
51297;BME280;37380;45.186;9.792;2024-01-25T00:02:30;102047.19;;;1.30;87.84
51297;BME280;37380;45.186;9.792;2024-01-25T00:04:57;102073.91;;;1.22;88.38
51297;BME280;37380;45.186;9.792;2024-01-25T00:07:24;102065.88;;;1.46;88.03
51297;BME280;37380;45.186;9.792;2024-01-25T00:09:52;102074.28;;;1.28;87.24
51297;BME280;37380;45.186;9.792;2024-01-25T00:12:19;102062.94;;;1.26;87.97
51297;BME280;37380;45.186;9.792;2024-01-25T00:14:45;102057.69;;;0.98;87.89
51297;BME280;37380;45.186;9.792;2024-01-25T00:17:16;102065.91;;;0.98;88.15
51297;BME280;37380;45.186;9.792;2024-01-25T00:19:43;102067.22;;;0.79;88.37
51297;BME280;37380;45.186;9.792;2024-01-25T00:22:10;102067.16;;;0.90;88.51
51297;BME280;37380;45.186;9.792;2024-01-25T00:24:37;102048.31;;;0.92;88.59
51297;BME280;37380;45.186;9.792;2024-01-25T00:27:05;102053.00;;;0.95;88.53
51297;BME280;37380;45.186;9.792;2024-01-25T00:29:33;102054.19;;;0.94;89.96
51297;BME280;37380;45.186;9.792;2024-01-25T00:32:02;102058.06;;;1.00;89.26
51297;BME280;37380;45.186;9.792;2024-01-25T00:34:29;102054.13;;;1.01;89.12
51297;BME280;37380;45.186;9.792;2024-01-25T00:36:57;102060.88;;;0.93;88.15
51297;BME280;37380;45.186;9.792;2024-01-25T00:39:24;102074.16;;;0.98;88.83
51297;BME280;37380;45.186;9.792;2024-01-25T00:41:52;102061.19;;;0.98;89.35
51297;BME280;37380;45.186;9.792;2024-01-25T00:44:24;102062.72;;;1.03;89.08
51297;BME280;37380;45.186;9.792;2024-01-25T00:46:52;102066.69;;;0.98;89.02
51297;BME280;37380;45.186;9.792;2024-01-25T00:49:20;102064.78;;;0.92;89.14
51297;BME280;37380;45.186;9.792;2024-01-25T00:51:48;102069.53;;;0.84;89.19
51297;BME280;37380;45.186;9.792;2024-01-25T00:54:17;102060.13;;;0.85;89.71
51297;BME280;37380;45.186;9.792;2024-01-25T00:56:44;102056.84;;;1.04;89.03
51297;BME280;37380;45.186;9.792;2024-01-25T00:59:11;102050.22;;;0.98;89.07
51297;BME280;37380;45.186;9.792;2024-01-25T01:01:39;102062.50;;;0.83;88.71
51297;BME280;37380;45.186;9.792;2024-01-25T01:04:09;102047.34;;;0.68;88.25
51297;BME280;37380;45.186;9.792;2024-01-25T01:06:36;102057.06;;;0.76;89.98
51297;BME280;37380;45.186;9.792;2024-01-25T01:09:03;102051.31;;;0.56;88.77
51297;BME280;37380;45.186;9.792;2024-01-25T01:11:30;102069.66;;;0.66;89.12
51297;BME280;37380;45.186;9.792;2024-01-25T01:13:57;102060.31;;;0.60;89.45
51297;BME280;37380;45.186;9.792;2024-01-25T01:16:24;102072.09;;;0.54;88.49
51297;BME280;37380;45.186;9.792;2024-01-25T01:18:51;102065.00;;;0.60;88.31
51297;BME280;37380;45.186;9.792;2024-01-25T01:21:19;102074.22;;;0.84;89.05
51297;BME280;37380;45.186;9.792;2024-01-25T01:23:47;102081.19;;;0.99;87.70
51297;BME280;37380;45.186;9.792;2024-01-25T01:26:15;102089.03;;;0.93;87.33
51297;BME280;37380;45.186;9.792;2024-01-25T01:28:42;102074.16;;;0.94;87.24
51297;BME280;37380;45.186;9.792;2024-01-25T01:31:10;102078.84;;;0.94;87.75
51297;BME280;37380;45.186;9.792;2024-01-25T01:33:37;102062.06;;;0.88;88.37
51297;BME280;37380;45.186;9.792;2024-01-25T01:36:05;102088.50;;;0.57;87.79
51297;BME280;37380;45.186;9.792;2024-01-25T01:38:32;102073.16;;;0.71;89.65
51297;BME280;37380;45.186;9.792;2024-01-25T01:40:59;102079.16;;;0.48;88.04
51297;BME280;37380;45.186;9.792;2024-01-25T01:43:26;102072.47;;;0.56;88.72
51297;BME280;37380;45.186;9.792;2024-01-25T01:45:56;102082.28;;;0.53;88.52
51297;BME280;37380;45.186;9.792;2024-01-25T01:48:28;102077.91;;;0.63;89.27
51297;BME280;37380;45.186;9.792;2024-01-25T01:50:55;102071.72;;;1.03;89.29
51297;BME280;37380;45.186;9.792;2024-01-25T01:53:23;102068.53;;;1.12;89.60
51297;BME280;37380;45.186;9.792;2024-01-25T01:55:51;102085.84;;;1.02;88.79
51297;BME280;37380;45.186;9.792;2024-01-25T01:58:19;102062.81;;;0.92;89.19
51297;BME280;37380;45.186;9.792;2024-01-25T02:00:48;102083.72;;;0.72;88.66
51297;BME280;37380;45.186;9.792;2024-01-25T02:03:17;102068.72;;;0.87;89.48
51297;BME280;37380;45.186;9.792;2024-01-25T02:05:44;102082.81;;;0.93;89.17
51297;BME280;37380;45.186;9.792;2024-01-25T02:08:11;102072.22;;;0.91;89.51
51297;BME280;37380;45.186;9.792;2024-01-25T02:10:39;102068.38;;;0.82;88.57
51297;BME280;37380;45.186;9.792;2024-01-25T02:13:08;102064.88;;;0.78;88.90
51297;BME280;37380;45.186;9.792;2024-01-25T02:15:35;102057.97;;;0.55;87.91
51297;BME280;37380;45.186;9.792;2024-01-25T02:18:02;102071.63;;;0.66;89.25
51297;BME280;37380;45.186;9.792;2024-01-25T02:20:30;102052.06;;;0.64;89.32
51297;BME280;37380;45.186;9.792;2024-01-25T02:22:57;102060.34;;;0.53;88.35
51297;BME280;37380;45.186;9.792;2024-01-25T02:25:24;102051.75;;;0.55;88.55
51297;BME280;37380;45.186;9.792;2024-01-25T02:27:51;102056.00;;;0.59;89.61
51297;BME280;37380;45.186;9.792;2024-01-25T02:30:18;102049.38;;;0.57;89.70
51297;BME280;37380;45.186;9.792;2024-01-25T02:32:46;102033.03;;;0.39;88.10
51297;BME280;37380;45.186;9.792;2024-01-25T02:35:13;102039.34;;;0.29;88.33
51297;BME280;37380;45.186;9.792;2024-01-25T02:37:41;102030.72;;;0.34;89.58
51297;BME280;37380;45.186;9.792;2024-01-25T02:40:10;102040.47;;;0.42;90.23
51297;BME280;37380;45.186;9.792;2024-01-25T02:42:38;102030.38;;;0.25;89.11
51297;BME280;37380;45.186;9.792;2024-01-25T02:45:05;102037.13;;;0.03;88.35
51297;BME280;37380;45.186;9.792;2024-01-25T02:47:32;102048.81;;;0.18;89.30
51297;BME280;37380;45.186;9.792;2024-01-25T02:49:59;102050.69;;;0.31;90.80
51297;BME280;37380;45.186;9.792;2024-01-25T02:52:26;102035.31;;;0.48;91.29
51297;BME280;37380;45.186;9.792;2024-01-25T02:54:53;102021.69;;;0.37;90.13
51297;BME280;37380;45.186;9.792;2024-01-25T02:57:20;102037.34;;;0.40;89.56
51297;BME280;37380;45.186;9.792;2024-01-25T02:59:47;102044.69;;;0.50;90.75
51297;BME280;37380;45.186;9.792;2024-01-25T03:02:14;102025.91;;;0.52;90.87
51297;BME280;37380;45.186;9.792;2024-01-25T03:04:43;102016.91;;;0.52;90.43
51297;BME280;37380;45.186;9.792;2024-01-25T03:07:11;102011.44;;;0.48;89.51
51297;BME280;37380;45.186;9.792;2024-01-25T03:09:40;102014.97;;;0.49;89.75
51297;BME280;37380;45.186;9.792;2024-01-25T03:12:07;102027.09;;;0.51;89.51
51297;BME280;37380;45.186;9.792;2024-01-25T03:14:35;102023.19;;;0.52;89.85
51297;BME280;37380;45.186;9.792;2024-01-25T03:17:02;102021.97;;;0.53;89.89
51297;BME280;37380;45.186;9.792;2024-01-25T03:19:29;102015.06;;;0.35;88.83
51297;BME280;37380;45.186;9.792;2024-01-25T03:21:56;102009.59;;;0.35;89.16
51297;BME280;37380;45.186;9.792;2024-01-25T03:24:24;101997.94;;;0.20;88.70
51297;BME280;37380;45.186;9.792;2024-01-25T03:26:52;101999.47;;;0.25;89.30
51297;BME280;37380;45.186;9.792;2024-01-25T03:29:19;102006.53;;;0.22;88.94
51297;BME280;37380;45.186;9.792;2024-01-25T03:31:46;102009.31;;;0.15;88.68
51297;BME280;37380;45.186;9.792;2024-01-25T03:34:13;101997.97;;;0.13;88.29
51297;BME280;37380;45.186;9.792;2024-01-25T03:36:41;102006.56;;;0.15;88.61
51297;BME280;37380;45.186;9.792;2024-01-25T03:39:08;102010.16;;;-0.02;88.67
51297;BME280;37380;45.186;9.792;2024-01-25T03:41:35;102015.97;;;0.11;88.53
51297;BME280;37380;45.186;9.792;2024-01-25T03:44:02;102019.47;;;0.18;89.03
51297;BME280;37380;45.186;9.792;2024-01-25T03:46:30;102012.81;;;0.16;88.99
51297;BME280;37380;45.186;9.792;2024-01-25T03:48:58;102019.09;;;0.16;90.41
51297;BME280;37380;45.186;9.792;2024-01-25T03:51:26;102022.63;;;0.17;90.71
51297;BME280;37380;45.186;9.792;2024-01-25T03:53:53;102014.75;;;0.22;90.46
51297;BME280;37380;45.186;9.792;2024-01-25T03:56:22;102019.00;;;0.27;91.14
51297;BME280;37380;45.186;9.792;2024-01-25T03:58:49;102010.88;;;0.16;90.92
51297;BME280;37380;45.186;9.792;2024-01-25T04:01:16;102002.66;;;0.16;91.26
51297;BME280;37380;45.186;9.792;2024-01-25T04:03:44;102015.56;;;0.16;91.19
51297;BME280;37380;45.186;9.792;2024-01-25T04:06:11;102017.44;;;0.29;91.82
51297;BME280;37380;45.186;9.792;2024-01-25T04:08:38;102018.25;;;0.26;90.64
51297;BME280;37380;45.186;9.792;2024-01-25T04:11:06;102022.53;;;0.27;90.39
51297;BME280;37380;45.186;9.792;2024-01-25T04:13:32;102029.22;;;0.26;90.90
51297;BME280;37380;45.186;9.792;2024-01-25T04:16:00;102026.06;;;0.24;90.56
51297;BME280;37380;45.186;9.792;2024-01-25T04:18:27;102031.25;;;0.12;90.54
51297;BME280;37380;45.186;9.792;2024-01-25T04:20:54;102028.44;;;0.22;90.17
51297;BME280;37380;45.186;9.792;2024-01-25T04:23:21;102035.44;;;0.30;89.56
51297;BME280;37380;45.186;9.792;2024-01-25T04:25:48;102030.34;;;0.32;89.52
51297;BME280;37380;45.186;9.792;2024-01-25T04:28:15;102025.34;;;0.17;89.73
51297;BME280;37380;45.186;9.792;2024-01-25T04:30:43;102024.72;;;-0.16;89.99
51297;BME280;37380;45.186;9.792;2024-01-25T04:33:10;102029.38;;;-0.09;90.60
51297;BME280;37380;45.186;9.792;2024-01-25T04:35:37;102030.53;;;-0.03;90.37
51297;BME280;37380;45.186;9.792;2024-01-25T04:38:04;102034.84;;;-0.06;90.60
51297;BME280;37380;45.186;9.792;2024-01-25T04:40:31;102035.22;;;-0.04;90.64
51297;BME280;37380;45.186;9.792;2024-01-25T04:42:58;102022.72;;;-0.12;91.46
51297;BME280;37380;45.186;9.792;2024-01-25T04:45:26;102033.28;;;-0.07;91.93
51297;BME280;37380;45.186;9.792;2024-01-25T04:47:52;102034.84;;;-0.09;92.11
51297;BME280;37380;45.186;9.792;2024-01-25T04:50:19;102020.44;;;-0.20;91.58
51297;BME280;37380;45.186;9.792;2024-01-25T04:52:47;102038.00;;;-0.21;91.40
51297;BME280;37380;45.186;9.792;2024-01-25T04:55:14;102027.88;;;-0.24;91.23
51297;BME280;37380;45.186;9.792;2024-01-25T04:57:41;102033.72;;;-0.19;92.08
51297;BME280;37380;45.186;9.792;2024-01-25T05:00:09;102039.59;;;-0.20;91.40
51297;BME280;37380;45.186;9.792;2024-01-25T05:02:36;102052.91;;;-0.22;91.94
51297;BME280;37380;45.186;9.792;2024-01-25T05:05:03;102052.84;;;-0.08;93.23
51297;BME280;37380;45.186;9.792;2024-01-25T05:07:30;102048.53;;;-0.06;93.08
51297;BME280;37380;45.186;9.792;2024-01-25T05:09:58;102041.97;;;-0.29;92.45
51297;BME280;37380;45.186;9.792;2024-01-25T05:12:25;102044.69;;;-0.22;92.63
51297;BME280;37380;45.186;9.792;2024-01-25T05:14:52;102043.91;;;-0.23;92.13
51297;BME280;37380;45.186;9.792;2024-01-25T05:17:19;102049.78;;;-0.24;92.51
51297;BME280;37380;45.186;9.792;2024-01-25T05:19:46;102051.31;;;-0.23;92.99
51297;BME280;37380;45.186;9.792;2024-01-25T05:22:14;102048.13;;;-0.01;92.38
51297;BME280;37380;45.186;9.792;2024-01-25T05:24:41;102047.41;;;-0.15;92.12
51297;BME280;37380;45.186;9.792;2024-01-25T05:27:08;102045.47;;;-0.22;91.41
51297;BME280;37380;45.186;9.792;2024-01-25T05:29:35;102056.78;;;-0.16;92.06
51297;BME280;37380;45.186;9.792;2024-01-25T05:32:02;102046.59;;;-0.09;92.23
51297;BME280;37380;45.186;9.792;2024-01-25T05:34:29;102055.91;;;0.12;92.71
51297;BME280;37380;45.186;9.792;2024-01-25T05:36:56;102064.56;;;-0.01;91.74
51297;BME280;37380;45.186;9.792;2024-01-25T05:39:23;102068.06;;;-0.07;91.57
51297;BME280;37380;45.186;9.792;2024-01-25T05:41:50;102063.75;;;-0.01;92.65
51297;BME280;37380;45.186;9.792;2024-01-25T05:44:17;102060.16;;;0.16;92.66
51297;BME280;37380;45.186;9.792;2024-01-25T05:46:44;102055.56;;;-0.01;91.79
51297;BME280;37380;45.186;9.792;2024-01-25T05:49:12;102066.19;;;-0.17;90.93
51297;BME280;37380;45.186;9.792;2024-01-25T05:51:39;102075.16;;;-0.24;90.93
51297;BME280;37380;45.186;9.792;2024-01-25T05:54:07;102068.53;;;-0.23;90.47
51297;BME280;37380;45.186;9.792;2024-01-25T05:56:33;102077.56;;;-0.29;91.30
51297;BME280;37380;45.186;9.792;2024-01-25T05:59:00;102072.81;;;-0.18;91.34
51297;BME280;37380;45.186;9.792;2024-01-25T06:01:27;102068.13;;;-0.21;90.60
51297;BME280;37380;45.186;9.792;2024-01-25T06:03:55;102066.63;;;-0.40;90.12
51297;BME280;37380;45.186;9.792;2024-01-25T06:06:22;102061.97;;;-0.53;90.33
51297;BME280;37380;45.186;9.792;2024-01-25T06:08:49;102061.59;;;-0.70;90.75
51297;BME280;37380;45.186;9.792;2024-01-25T06:11:28;102062.38;;;-0.65;91.33
51297;BME280;37380;45.186;9.792;2024-01-25T06:13:55;102079.56;;;-0.69;91.85
51297;BME280;37380;45.186;9.792;2024-01-25T06:16:22;102064.72;;;-0.60;92.64
51297;BME280;37380;45.186;9.792;2024-01-25T06:18:50;102068.22;;;-0.56;93.00
51297;BME280;37380;45.186;9.792;2024-01-25T06:21:17;102071.72;;;-0.49;92.91
51297;BME280;37380;45.186;9.792;2024-01-25T06:23:45;102062.38;;;-0.58;92.19
51297;BME280;37380;45.186;9.792;2024-01-25T06:26:12;102069.41;;;-0.57;91.74
51297;BME280;37380;45.186;9.792;2024-01-25T06:28:40;102070.59;;;-0.65;91.90
51297;BME280;37380;45.186;9.792;2024-01-25T06:31:08;102076.84;;;-0.90;90.92
51297;BME280;37380;45.186;9.792;2024-01-25T06:33:35;102088.97;;;-0.87;91.73
51297;BME280;37380;45.186;9.792;2024-01-25T06:36:02;102101.44;;;-0.69;92.54
51297;BME280;37380;45.186;9.792;2024-01-25T06:38:29;102098.31;;;-0.63;92.92
51297;BME280;37380;45.186;9.792;2024-01-25T06:40:56;102081.50;;;-0.58;92.95
51297;BME280;37380;45.186;9.792;2024-01-25T06:43:23;102087.38;;;-0.56;92.50
51297;BME280;37380;45.186;9.792;2024-01-25T06:45:50;102087.00;;;-0.65;92.44
51297;BME280;37380;45.186;9.792;2024-01-25T06:48:17;102103.00;;;-0.71;92.33
51297;BME280;37380;45.186;9.792;2024-01-25T06:50:45;102101.84;;;-0.74;92.35
51297;BME280;37380;45.186;9.792;2024-01-25T06:53:12;102111.59;;;-0.69;92.12
51297;BME280;37380;45.186;9.792;2024-01-25T06:55:40;102098.72;;;-0.76;92.23
51297;BME280;37380;45.186;9.792;2024-01-25T06:58:07;102097.56;;;-0.75;91.73
51297;BME280;37380;45.186;9.792;2024-01-25T07:00:34;102113.19;;;-0.89;91.48
51297;BME280;37380;45.186;9.792;2024-01-25T07:03:06;102107.72;;;-0.89;91.37
51297;BME280;37380;45.186;9.792;2024-01-25T07:05:33;102114.75;;;-0.99;92.31
51297;BME280;37380;45.186;9.792;2024-01-25T07:08:02;102112.00;;;-0.85;92.67
51297;BME280;37380;45.186;9.792;2024-01-25T07:10:30;102123.31;;;-0.97;92.99
51297;BME280;37380;45.186;9.792;2024-01-25T07:13:00;102117.84;;;-0.90;92.78
51297;BME280;37380;45.186;9.792;2024-01-25T07:15:27;102114.34;;;-0.90;93.11
51297;BME280;37380;45.186;9.792;2024-01-25T07:17:56;102120.19;;;-1.02;93.26
51297;BME280;37380;45.186;9.792;2024-01-25T07:20:23;102119.00;;;-1.12;93.87
51297;BME280;37380;45.186;9.792;2024-01-25T07:22:54;102121.75;;;-1.05;94.05
51297;BME280;37380;45.186;9.792;2024-01-25T07:25:30;102114.34;;;-1.08;94.40
51297;BME280;37380;45.186;9.792;2024-01-25T07:28:10;102119.44;;;-1.03;94.88
51297;BME280;37380;45.186;9.792;2024-01-25T07:30:42;102120.59;;;-0.83;94.97
51297;BME280;37380;45.186;9.792;2024-01-25T07:33:10;102121.78;;;-0.87;94.61
51297;BME280;37380;45.186;9.792;2024-01-25T07:35:39;102120.97;;;-0.81;94.36
51297;BME280;37380;45.186;9.792;2024-01-25T07:38:12;102113.16;;;-0.93;94.50
51297;BME280;37380;45.186;9.792;2024-01-25T07:40:39;102100.66;;;-0.65;94.50
51297;BME280;37380;45.186;9.792;2024-01-25T07:43:09;102101.84;;;-0.63;94.08
51297;BME280;37380;45.186;9.792;2024-01-25T07:45:38;102093.59;;;-0.45;93.91
51297;BME280;37380;45.186;9.792;2024-01-25T07:48:10;102103.38;;;-0.62;93.29
51297;BME280;37380;45.186;9.792;2024-01-25T07:50:49;102098.66;;;-0.33;93.57
51297;BME280;37380;45.186;9.792;2024-01-25T07:53:17;102103.38;;;-0.34;93.62
51297;BME280;37380;45.186;9.792;2024-01-25T07:55:49;102099.03;;;-0.24;93.27
51297;BME280;37380;45.186;9.792;2024-01-25T07:58:19;102095.09;;;-0.13;93.41
51297;BME280;37380;45.186;9.792;2024-01-25T08:00:54;102110.72;;;-0.17;92.77
51297;BME280;37380;45.186;9.792;2024-01-25T08:03:29;102123.59;;;0.04;92.13
51297;BME280;37380;45.186;9.792;2024-01-25T08:06:01;102105.56;;;0.10;91.74
51297;BME280;37380;45.186;9.792;2024-01-25T08:08:34;102113.09;;;-0.15;91.40
51297;BME280;37380;45.186;9.792;2024-01-25T08:11:04;102113.00;;;0.17;91.82
51297;BME280;37380;45.186;9.792;2024-01-25T08:13:35;102119.19;;;0.24;91.74
51297;BME280;37380;45.186;9.792;2024-01-25T08:16:11;102130.16;;;0.24;91.81
51297;BME280;37380;45.186;9.792;2024-01-25T08:18:49;102132.38;;;0.54;91.68
51297;BME280;37380;45.186;9.792;2024-01-25T08:21:19;102135.41;;;0.74;91.56
51297;BME280;37380;45.186;9.792;2024-01-25T08:23:55;102134.06;;;0.96;90.13
51297;BME280;37380;45.186;9.792;2024-01-25T08:26:25;102133.84;;;0.76;88.24
51297;BME280;37380;45.186;9.792;2024-01-25T08:28:55;102140.41;;;0.89;88.65
51297;BME280;37380;45.186;9.792;2024-01-25T08:31:26;102138.09;;;1.35;88.30
51297;BME280;37380;45.186;9.792;2024-01-25T08:34:01;102125.28;;;1.63;87.71
51297;BME280;37380;45.186;9.792;2024-01-25T08:36:30;102122.94;;;1.20;87.32
51297;BME280;37380;45.186;9.792;2024-01-25T08:38:57;102124.03;;;1.30;88.02
51297;BME280;37380;45.186;9.792;2024-01-25T08:41:25;102122.22;;;1.57;87.51
51297;BME280;37380;45.186;9.792;2024-01-25T08:43:53;102123.69;;;1.65;87.40
51297;BME280;37380;45.186;9.792;2024-01-25T08:46:20;102129.75;;;1.90;87.70
51297;BME280;37380;45.186;9.792;2024-01-25T08:48:47;102123.81;;;1.95;86.77
51297;BME280;37380;45.186;9.792;2024-01-25T08:51:14;102130.09;;;1.92;86.33
51297;BME280;37380;45.186;9.792;2024-01-25T08:53:44;102124.44;;;2.07;86.30
51297;BME280;37380;45.186;9.792;2024-01-25T08:56:11;102128.09;;;1.96;86.48
51297;BME280;37380;45.186;9.792;2024-01-25T08:58:43;102134.25;;;2.08;87.01
51297;BME280;37380;45.186;9.792;2024-01-25T09:01:12;102129.94;;;2.07;86.82
51297;BME280;37380;45.186;9.792;2024-01-25T09:03:43;102141.63;;;2.14;86.36
51297;BME280;37380;45.186;9.792;2024-01-25T09:06:11;102143.72;;;2.67;86.55
51297;BME280;37380;45.186;9.792;2024-01-25T09:08:38;102143.94;;;3.06;84.42
51297;BME280;37380;45.186;9.792;2024-01-25T09:11:05;102153.09;;;3.23;82.80
51297;BME280;37380;45.186;9.792;2024-01-25T09:13:32;102149.47;;;3.29;83.71
51297;BME280;37380;45.186;9.792;2024-01-25T09:16:12;102153.84;;;3.50;82.81
51297;BME280;37380;45.186;9.792;2024-01-25T09:18:39;102161.91;;;3.61;82.63
51297;BME280;37380;45.186;9.792;2024-01-25T09:21:07;102149.47;;;3.76;81.50
51297;BME280;37380;45.186;9.792;2024-01-25T09:23:34;102146.59;;;3.60;81.77
51297;BME280;37380;45.186;9.792;2024-01-25T09:26:01;102147.78;;;3.59;82.86
51297;BME280;37380;45.186;9.792;2024-01-25T09:28:28;102154.31;;;3.68;82.44
51297;BME280;37380;45.186;9.792;2024-01-25T09:30:56;102168.94;;;4.08;81.37
51297;BME280;37380;45.186;9.792;2024-01-25T09:33:24;102160.09;;;4.17;80.46
51297;BME280;37380;45.186;9.792;2024-01-25T09:35:51;102164.97;;;4.09;81.09
51297;BME280;37380;45.186;9.792;2024-01-25T09:38:19;102158.78;;;4.25;80.36
51297;BME280;37380;45.186;9.792;2024-01-25T09:40:46;102172.63;;;4.21;81.06
51297;BME280;37380;45.186;9.792;2024-01-25T09:43:13;102170.78;;;4.54;81.05
51297;BME280;37380;45.186;9.792;2024-01-25T09:45:41;102186.03;;;4.78;80.13
51297;BME280;37380;45.186;9.792;2024-01-25T09:48:09;102184.69;;;4.66;80.39
51297;BME280;37380;45.186;9.792;2024-01-25T09:50:39;102187.75;;;4.52;80.92
51297;BME280;37380;45.186;9.792;2024-01-25T09:53:06;102181.44;;;4.71;80.90
51297;BME280;37380;45.186;9.792;2024-01-25T09:55:38;102194.47;;;4.71;80.78
51297;BME280;37380;45.186;9.792;2024-01-25T09:58:07;102198.28;;;4.77;80.56
51297;BME280;37380;45.186;9.792;2024-01-25T10:00:35;102198.00;;;4.71;80.62
51297;BME280;37380;45.186;9.792;2024-01-25T10:03:03;102207.44;;;4.90;80.79
51297;BME280;37380;45.186;9.792;2024-01-25T10:05:30;102194.63;;;5.00;80.29
51297;BME280;37380;45.186;9.792;2024-01-25T10:07:57;102210.50;;;4.96;79.82
51297;BME280;37380;45.186;9.792;2024-01-25T10:10:32;102199.28;;;5.03;80.51
51297;BME280;37380;45.186;9.792;2024-01-25T10:12:59;102211.31;;;5.12;80.00
51297;BME280;37380;45.186;9.792;2024-01-25T10:15:26;102213.91;;;5.19;80.03
51297;BME280;37380;45.186;9.792;2024-01-25T10:17:54;102206.06;;;5.34;78.99
51297;BME280;37380;45.186;9.792;2024-01-25T10:20:44;102198.88;;;5.69;78.54
51297;BME280;37380;45.186;9.792;2024-01-25T10:23:12;102212.47;;;5.79;77.81
51297;BME280;37380;45.186;9.792;2024-01-25T10:25:39;102191.91;;;5.96;78.74
51297;BME280;37380;45.186;9.792;2024-01-25T10:28:07;102197.84;;;6.11;77.12
51297;BME280;37380;45.186;9.792;2024-01-25T10:30:35;102207.38;;;5.78;78.42
51297;BME280;37380;45.186;9.792;2024-01-25T10:33:03;102197.91;;;6.07;78.50
51297;BME280;37380;45.186;9.792;2024-01-25T10:35:36;102200.94;;;6.13;79.46
51297;BME280;37380;45.186;9.792;2024-01-25T10:38:05;102200.63;;;6.52;77.78
51297;BME280;37380;45.186;9.792;2024-01-25T10:40:32;102204.38;;;7.00;77.00
51297;BME280;37380;45.186;9.792;2024-01-25T10:42:59;102198.94;;;6.96;75.53
51297;BME280;37380;45.186;9.792;2024-01-25T10:45:29;102195.94;;;6.91;76.38
51297;BME280;37380;45.186;9.792;2024-01-25T10:47:56;102198.69;;;6.65;76.20
51297;BME280;37380;45.186;9.792;2024-01-25T10:50:24;102203.78;;;6.09;77.82
51297;BME280;37380;45.186;9.792;2024-01-25T10:52:53;102201.66;;;6.30;79.11
51297;BME280;37380;45.186;9.792;2024-01-25T10:55:20;102200.00;;;6.61;78.13
51297;BME280;37380;45.186;9.792;2024-01-25T10:57:48;102211.09;;;6.86;77.63
51297;BME280;37380;45.186;9.792;2024-01-25T11:00:16;102208.50;;;7.20;75.29
51297;BME280;37380;45.186;9.792;2024-01-25T11:02:46;102197.59;;;7.38;75.04
51297;BME280;37380;45.186;9.792;2024-01-25T11:05:15;102212.47;;;7.32;76.05
51297;BME280;37380;45.186;9.792;2024-01-25T11:07:48;102214.25;;;7.13;74.72
51297;BME280;37380;45.186;9.792;2024-01-25T11:10:22;102214.91;;;6.92;75.77
51297;BME280;37380;45.186;9.792;2024-01-25T11:15:30;102220.56;;;7.01;75.41
51297;BME280;37380;45.186;9.792;2024-01-25T11:17:58;102221.00;;;7.00;76.91
51297;BME280;37380;45.186;9.792;2024-01-25T11:20:28;102217.47;;;7.37;75.99
51297;BME280;37380;45.186;9.792;2024-01-25T11:23:04;102221.44;;;7.11;75.16
51297;BME280;37380;45.186;9.792;2024-01-25T11:25:34;102220.69;;;7.35;74.65
51297;BME280;37380;45.186;9.792;2024-01-25T11:28:02;102213.25;;;7.45;74.98
51297;BME280;37380;45.186;9.792;2024-01-25T11:30:33;102211.78;;;7.66;74.99
51297;BME280;37380;45.186;9.792;2024-01-25T11:33:03;102213.31;;;7.67;74.16
51297;BME280;37380;45.186;9.792;2024-01-25T11:35:31;102204.88;;;7.83;72.77
51297;BME280;37380;45.186;9.792;2024-01-25T11:37:58;102208.94;;;7.91;71.97
51297;BME280;37380;45.186;9.792;2024-01-25T11:40:27;102213.66;;;8.03;71.88
51297;BME280;37380;45.186;9.792;2024-01-25T11:42:58;102212.06;;;8.27;71.50
51297;BME280;37380;45.186;9.792;2024-01-25T11:45:25;102216.91;;;8.01;71.29
51297;BME280;37380;45.186;9.792;2024-01-25T11:47:52;102204.53;;;8.15;71.95
51297;BME280;37380;45.186;9.792;2024-01-25T11:50:19;102196.66;;;8.13;71.88
51297;BME280;37380;45.186;9.792;2024-01-25T11:52:48;102200.13;;;8.05;71.71
51297;BME280;37380;45.186;9.792;2024-01-25T11:55:17;102186.09;;;8.21;71.84
51297;BME280;37380;45.186;9.792;2024-01-25T11:57:44;102186.84;;;8.22;71.30
51297;BME280;37380;45.186;9.792;2024-01-25T12:00:13;102193.69;;;8.08;70.63
51297;BME280;37380;45.186;9.792;2024-01-25T12:02:42;102185.59;;;8.01;70.73
51297;BME280;37380;45.186;9.792;2024-01-25T12:05:10;102184.72;;;8.04;70.75
51297;BME280;37380;45.186;9.792;2024-01-25T12:07:39;102180.13;;;8.10;70.76
51297;BME280;37380;45.186;9.792;2024-01-25T12:10:08;102172.53;;;8.23;71.30
51297;BME280;37380;45.186;9.792;2024-01-25T12:12:36;102168.53;;;8.24;70.75
51297;BME280;37380;45.186;9.792;2024-01-25T12:15:06;102160.47;;;8.17;70.39
51297;BME280;37380;45.186;9.792;2024-01-25T12:17:34;102152.81;;;8.21;70.04
51297;BME280;37380;45.186;9.792;2024-01-25T12:20:10;102151.88;;;8.24;70.49
51297;BME280;37380;45.186;9.792;2024-01-25T12:22:39;102154.56;;;8.28;71.18
51297;BME280;37380;45.186;9.792;2024-01-25T12:25:07;102158.91;;;8.29;70.99
51297;BME280;37380;45.186;9.792;2024-01-25T12:27:36;102144.25;;;8.28;70.53
51297;BME280;37380;45.186;9.792;2024-01-25T12:30:05;102140.53;;;8.31;70.92
51297;BME280;37380;45.186;9.792;2024-01-25T12:32:35;102132.88;;;8.35;70.66
51297;BME280;37380;45.186;9.792;2024-01-25T12:35:02;102135.34;;;8.33;69.95
51297;BME280;37380;45.186;9.792;2024-01-25T12:37:30;102133.06;;;8.41;70.64
51297;BME280;37380;45.186;9.792;2024-01-25T12:39:58;102136.88;;;8.34;71.47
51297;BME280;37380;45.186;9.792;2024-01-25T12:42:25;102140.44;;;8.35;72.16
51297;BME280;37380;45.186;9.792;2024-01-25T12:44:53;102144.94;;;8.41;72.12
51297;BME280;37380;45.186;9.792;2024-01-25T12:47:24;102147.28;;;8.43;72.18
51297;BME280;37380;45.186;9.792;2024-01-25T12:49:52;102147.91;;;8.47;71.94
51297;BME280;37380;45.186;9.792;2024-01-25T12:52:19;102147.44;;;8.48;71.42
51297;BME280;37380;45.186;9.792;2024-01-25T12:54:46;102147.28;;;8.43;71.43
51297;BME280;37380;45.186;9.792;2024-01-25T12:57:13;102135.97;;;8.37;71.81
51297;BME280;37380;45.186;9.792;2024-01-25T12:59:40;102132.31;;;8.40;72.14
51297;BME280;37380;45.186;9.792;2024-01-25T13:02:08;102141.53;;;8.37;72.57
51297;BME280;37380;45.186;9.792;2024-01-25T13:04:36;102120.53;;;8.36;73.28